createdAt,value
2022-08-22T00:00:20.367Z,2.88
2022-08-22T00:03:07.953Z,2.30
2022-08-22T00:05:36.656Z,2.75
2022-08-22T00:10:53.003Z,2.97
2022-08-22T00:16:03.922Z,2.85
2022-08-22T00:21:14.112Z,2.80
2022-08-22T00:26:42.185Z,2.60
2022-08-22T00:31:57.745Z,2.50
2022-08-22T00:37:02.377Z,2.28
2022-08-22T00:42:03.650Z,2.58
2022-08-22T00:47:20.567Z,2.80
2022-08-22T00:52:41.318Z,2.90
2022-08-22T00:57:54.653Z,2.70
2022-08-22T01:03:05.053Z,2.50
2022-08-22T01:08:12.366Z,2.70
2022-08-22T01:13:13.610Z,2.63
2022-08-22T01:18:20.984Z,2.90
2022-08-22T01:23:25.309Z,2.77
2022-08-22T01:28:45.428Z,2.50
2022-08-22T01:34:06.267Z,2.33
2022-08-22T01:39:26.837Z,2.53
2022-08-22T01:44:35.731Z,2.50
2022-08-22T01:49:44.028Z,2.90
2022-08-22T01:54:54.967Z,2.97
2022-08-22T01:59:59.120Z,2.90
2022-08-22T02:05:18.898Z,2.45
2022-08-22T02:10:38.183Z,2.57
2022-08-22T02:15:39.754Z,2.80
2022-08-22T02:20:47.164Z,2.60
2022-08-22T02:26:03.329Z,2.95
2022-08-22T02:31:16.683Z,3.30
2022-08-22T02:36:21.388Z,2.80
2022-08-22T02:41:28.713Z,2.50
2022-08-22T02:46:32.313Z,2.73
2022-08-22T02:51:33.556Z,3.58
2022-08-22T02:56:45.616Z,2.90
2022-08-22T03:01:47.290Z,2.83
2022-08-22T03:07:11.918Z,2.80
2022-08-22T03:12:24.708Z,2.72
2022-08-22T03:17:31.998Z,2.42
2022-08-22T03:22:42.041Z,2.83
2022-08-22T03:27:53.279Z,2.63
2022-08-22T03:32:56.392Z,2.60
2022-08-22T03:38:09.409Z,2.63
2022-08-22T03:43:24.575Z,2.75
2022-08-22T03:48:44.155Z,3.10
2022-08-22T03:53:54.295Z,2.47
2022-08-22T03:58:58.447Z,2.90
2022-08-22T04:04:09.354Z,2.80
2022-08-22T04:09:19.657Z,2.72
2022-08-22T04:14:40.740Z,3.13
2022-08-22T04:19:50.753Z,3.00
2022-08-22T04:24:52.692Z,3.08
2022-08-22T04:30:03.161Z,3.03
2022-08-22T04:35:23.378Z,3.22
2022-08-22T04:40:34.475Z,3.17
2022-08-22T04:45:39.532Z,3.33
2022-08-22T04:50:49.433Z,3.37
2022-08-22T04:56:11.433Z,2.70
2022-08-22T05:01:18.562Z,2.80
2022-08-22T05:06:21.013Z,3.00
2022-08-22T05:11:23.401Z,2.72
2022-08-22T05:16:27.960Z,2.90
2022-08-22T05:21:32.629Z,3.03
2022-08-22T05:26:37.233Z,2.83
2022-08-22T05:31:43.812Z,2.95
2022-08-22T05:36:55.249Z,3.10
2022-08-22T05:41:58.093Z,3.77
2022-08-22T05:47:02.223Z,3.30
2022-08-22T05:52:03.949Z,3.53
2022-08-22T05:57:08.465Z,3.17
2022-08-22T06:02:19.212Z,2.85
2022-08-22T06:07:27.938Z,2.90
2022-08-22T06:12:34.225Z,3.67
2022-08-22T06:17:37.237Z,3.47
2022-08-22T06:22:44.027Z,3.33
2022-08-22T06:27:47.467Z,3.30
2022-08-22T06:32:59.790Z,3.17
2022-08-22T06:38:01.976Z,3.17
2022-08-22T06:43:04.909Z,3.00
2022-08-22T06:48:06.474Z,2.70
2022-08-22T06:53:10.961Z,3.20
2022-08-22T06:58:14.606Z,2.90
2022-08-22T07:03:33.291Z,3.00
2022-08-22T07:08:38.989Z,3.03
2022-08-22T07:13:43.027Z,3.40
2022-08-22T07:18:49.389Z,3.10
2022-08-22T07:23:50.993Z,3.07
2022-08-22T07:28:58.347Z,3.10
2022-08-22T07:34:05.496Z,3.20
2022-08-22T07:39:13.878Z,3.10
2022-08-22T07:44:17.980Z,3.65
2022-08-22T07:49:22.194Z,3.53
2022-08-22T07:54:35.509Z,3.33
2022-08-22T07:59:38.084Z,3.35
2022-08-22T08:04:40.769Z,3.40
2022-08-22T08:09:44.616Z,3.50
2022-08-22T08:14:50.049Z,3.63
2022-08-22T08:19:51.825Z,4.40
2022-08-22T08:24:57.087Z,4.38
2022-08-22T08:30:10.003Z,3.80
2022-08-22T08:35:18.708Z,3.92
2022-08-22T08:40:32.331Z,3.67
2022-08-22T08:45:43.235Z,3.63
2022-08-22T08:50:55.024Z,4.43
2022-08-22T08:56:01.959Z,3.78
2022-08-22T09:01:16.804Z,3.70
2022-08-22T09:06:42.487Z,3.43
2022-08-22T09:11:50.442Z,3.47
2022-08-22T09:17:00.961Z,3.92
2022-08-22T09:22:02.283Z,4.10
2022-08-22T09:27:08.979Z,3.60
2022-08-22T09:32:13.412Z,3.65
2022-08-22T09:37:14.697Z,3.83
2022-08-22T09:42:44.908Z,3.60
2022-08-22T09:48:07.346Z,3.35
2022-08-22T09:53:11.984Z,3.67
2022-08-22T09:58:25.626Z,3.47
2022-08-22T10:03:48.065Z,3.00
2022-08-22T10:08:49.410Z,3.30
2022-08-22T10:13:57.242Z,3.23
2022-08-22T10:19:16.900Z,3.15
2022-08-22T10:24:43.753Z,3.50
2022-08-22T10:30:03.433Z,3.50
2022-08-22T10:35:14.463Z,3.05
2022-08-22T10:40:34.932Z,3.22
2022-08-22T10:45:39.456Z,2.93
2022-08-22T10:50:47.490Z,3.30
2022-08-22T10:55:50.677Z,3.00
2022-08-22T11:00:52.685Z,3.20
2022-08-22T11:06:01.480Z,3.00
2022-08-22T11:11:03.055Z,3.42
2022-08-22T11:16:08.520Z,3.28
2022-08-22T11:21:16.015Z,2.90
2022-08-22T11:26:33.831Z,3.20
2022-08-22T11:31:51.743Z,3.00
2022-08-22T11:37:01.605Z,2.90
2022-08-22T11:42:12.124Z,2.90
2022-08-22T11:47:14.738Z,2.88
2022-08-22T11:52:34.936Z,2.80
2022-08-22T11:58:03.025Z,2.70
2022-08-22T12:03:12.477Z,2.78
2022-08-22T12:08:22.531Z,3.08
2022-08-22T12:13:40.206Z,2.77
2022-08-22T12:18:54.263Z,2.95
2022-08-22T12:23:55.672Z,3.20
2022-08-22T12:29:16.988Z,2.40
2022-08-22T12:34:24.086Z,2.43
2022-08-22T12:39:36.918Z,2.80
2022-08-22T12:44:48.312Z,2.80
2022-08-22T12:50:02.268Z,2.60
2022-08-22T12:55:04.485Z,2.53
2022-08-22T13:00:11.666Z,2.90
2022-08-22T13:05:19.853Z,2.50
2022-08-22T13:10:35.498Z,2.53
2022-08-22T13:15:41.929Z,2.72
2022-08-22T13:20:44.909Z,2.80
2022-08-22T13:26:07.456Z,2.80
2022-08-22T13:31:09.865Z,2.90
2022-08-22T13:36:13.986Z,2.70
2022-08-22T13:41:24.835Z,2.70
2022-08-22T13:46:28.185Z,2.60
2022-08-22T13:51:40.154Z,2.80
2022-08-22T13:56:44.153Z,2.60
2022-08-22T14:01:57.802Z,2.75
2022-08-22T14:07:01.844Z,2.42
2022-08-22T14:12:12.660Z,2.50
2022-08-22T14:17:17.700Z,2.63
2022-08-22T14:22:31.850Z,2.70
2022-08-22T14:27:40.659Z,2.90
2022-08-22T14:32:47.997Z,2.80
2022-08-22T14:37:51.722Z,2.50
2022-08-22T14:43:02.307Z,2.28
2022-08-22T14:48:31.246Z,2.80
2022-08-22T14:53:35.423Z,2.58
2022-08-22T14:58:57.211Z,2.30
2022-08-22T15:04:03.753Z,2.57
2022-08-22T15:09:28.137Z,2.73
2022-08-22T15:14:35.313Z,2.58
2022-08-22T15:19:41.271Z,2.40
2022-08-22T15:24:51.871Z,2.60
2022-08-22T15:29:59.534Z,2.75
2022-08-22T15:35:06.577Z,2.58
2022-08-22T15:40:27.331Z,2.37
2022-08-22T15:45:33.969Z,2.30
2022-08-22T15:50:38.635Z,2.47
2022-08-22T15:56:03.102Z,2.70
2022-08-22T16:01:19.010Z,2.63
2022-08-22T16:06:39.997Z,2.80
2022-08-22T16:11:52.652Z,2.65
2022-08-22T16:16:59.754Z,2.60
2022-08-22T16:22:04.069Z,2.70
2022-08-22T16:27:18.849Z,2.60
2022-08-22T16:32:25.200Z,2.50
2022-08-22T16:37:34.516Z,2.50
2022-08-22T16:42:44.394Z,2.47
2022-08-22T16:47:52.725Z,2.63
2022-08-22T16:52:59.490Z,2.60
2022-08-22T16:58:07.052Z,2.53
2022-08-22T17:03:11.640Z,2.53
2022-08-22T17:08:27.841Z,2.60
2022-08-22T17:13:36.900Z,2.63
2022-08-22T17:18:56.277Z,2.28
2022-08-22T17:24:01.616Z,2.90
2022-08-22T17:29:12.021Z,2.60
2022-08-22T17:34:16.333Z,2.40
2022-08-22T17:39:29.835Z,2.70
2022-08-22T17:44:49.406Z,2.70
2022-08-22T17:49:50.700Z,2.42
2022-08-22T17:54:56.551Z,2.60
2022-08-22T18:00:10.134Z,2.50
2022-08-22T18:05:16.189Z,3.05
2022-08-22T18:10:17.507Z,2.88
2022-08-22T18:15:30.711Z,3.00
2022-08-22T18:20:43.954Z,2.90
2022-08-22T18:25:54.339Z,2.83
2022-08-22T18:31:07.511Z,2.83
2022-08-22T18:36:11.620Z,2.57
2022-08-22T18:41:20.645Z,2.97
2022-08-22T18:46:26.658Z,2.90
2022-08-22T18:51:30.266Z,3.00
2022-08-22T18:56:31.525Z,2.60
2022-08-22T19:01:49.503Z,2.50
2022-08-22T19:06:51.737Z,2.77
2022-08-22T19:12:11.734Z,2.63
2022-08-22T19:17:15.694Z,3.10
2022-08-22T19:22:20.108Z,2.67
2022-08-22T19:27:22.498Z,2.93
2022-08-22T19:32:43.758Z,2.80
2022-08-22T19:37:53.185Z,3.03
2022-08-22T19:42:55.171Z,3.00
2022-08-22T19:48:00.827Z,2.70
2022-08-22T19:53:22.491Z,3.38
2022-08-22T19:58:33.258Z,3.03
2022-08-22T20:03:55.150Z,3.17
2022-08-22T20:09:02.210Z,2.80
2022-08-22T20:14:32.750Z,2.90
2022-08-22T20:25:43.061Z,3.10
2022-08-22T20:30:46.716Z,3.10
2022-08-22T20:35:54.190Z,2.90
2022-08-22T20:41:20.141Z,3.00
2022-08-22T20:46:32.530Z,3.47
2022-08-22T20:51:34.826Z,2.83
2022-08-22T20:56:50.683Z,3.20
2022-08-22T21:02:15.163Z,3.03
2022-08-22T21:07:24.206Z,3.03
2022-08-22T21:12:26.338Z,3.30
2022-08-22T21:17:29.156Z,3.15
2022-08-22T21:22:35.850Z,3.08
2022-08-22T21:27:37.174Z,3.20
2022-08-22T21:32:41.717Z,3.20
2022-08-22T21:37:45.365Z,3.30
2022-08-22T21:43:07.684Z,3.10
2022-08-22T21:48:27.611Z,3.30
2022-08-22T21:53:28.971Z,3.15
2022-08-22T21:58:36.671Z,3.10
2022-08-22T22:03:38.706Z,3.37
2022-08-22T22:08:40.032Z,3.10
2022-08-22T22:13:42.261Z,3.53
2022-08-22T22:18:43.559Z,3.30
2022-08-22T22:23:44.879Z,3.30
2022-08-22T22:28:50.192Z,3.22
2022-08-22T22:33:51.520Z,3.53
2022-08-22T22:38:53.065Z,3.20
2022-08-22T22:43:55.117Z,3.13
2022-08-22T22:48:56.969Z,3.23
2022-08-22T22:53:58.305Z,3.40
2022-08-22T22:59:08.314Z,3.58
2022-08-22T23:04:14.968Z,3.53
2022-08-22T23:09:16.362Z,3.43
2022-08-22T23:14:22.197Z,3.22
2022-08-22T23:19:24.055Z,3.38
2022-08-22T23:24:26.465Z,3.63
2022-08-22T23:29:30.253Z,3.58
2022-08-22T23:34:33.368Z,3.65
2022-08-22T23:39:38.347Z,3.30
2022-08-22T23:44:40.394Z,3.50
2022-08-22T23:49:42.194Z,3.28
2022-08-22T23:54:43.492Z,3.13
2022-08-22T23:59:48.061Z,3.80
